createdAt,value
2018-08-22T00:00:54.012Z,23.60
2018-08-22T00:03:22.649Z,23.60
2018-08-22T00:05:52.691Z,23.60
2018-08-22T00:08:25.702Z,23.60
2018-08-22T00:10:54.363Z,23.60
2018-08-22T00:13:23.133Z,23.50
2018-08-22T00:15:51.914Z,23.50
2018-08-22T00:18:20.859Z,23.50
2018-08-22T00:20:50.129Z,23.50
2018-08-22T00:23:18.766Z,23.50
2018-08-22T00:25:47.906Z,23.60
2018-08-22T00:28:16.919Z,23.60
2018-08-22T00:30:46.007Z,23.60
2018-08-22T00:33:15.612Z,23.50
2018-08-22T00:35:44.630Z,23.50
2018-08-22T00:38:13.389Z,23.50
2018-08-22T00:40:42.566Z,23.50
2018-08-22T00:43:11.899Z,23.40
2018-08-22T00:45:41.049Z,23.40
2018-08-22T00:48:09.961Z,23.50
2018-08-22T00:50:39.486Z,23.40
2018-08-22T00:53:08.832Z,23.30
2018-08-22T00:55:37.470Z,23.30
2018-08-22T00:58:06.933Z,23.30
2018-08-22T01:00:35.668Z,23.30
2018-08-22T01:03:04.926Z,23.20
2018-08-22T01:05:48.919Z,23.20
2018-08-22T01:08:17.625Z,23.20
2018-08-22T01:10:47.968Z,23.20
2018-08-22T01:13:16.706Z,23.20
2018-08-22T01:15:45.759Z,23.30
2018-08-22T01:18:15.370Z,23.40
2018-08-22T01:20:44.580Z,23.50
2018-08-22T01:23:14.066Z,23.60
2018-08-22T01:25:42.984Z,23.60
2018-08-22T01:28:12.457Z,23.60
2018-08-22T01:30:41.180Z,23.60
2018-08-22T01:33:09.880Z,23.60
2018-08-22T01:35:38.556Z,23.60
2018-08-22T01:38:08.277Z,23.50
2018-08-22T01:40:37.545Z,23.40
2018-08-22T01:43:06.109Z,23.40
2018-08-22T01:45:34.691Z,23.40
2018-08-22T01:48:03.539Z,23.40
2018-08-22T01:50:32.111Z,23.30
2018-08-22T01:53:01.222Z,23.20
2018-08-22T01:55:30.164Z,23.20
2018-08-22T01:57:58.880Z,23.10
2018-08-22T02:00:27.531Z,23.10
2018-08-22T02:02:56.024Z,23.00
2018-08-22T02:05:24.650Z,22.90
2018-08-22T02:07:53.442Z,22.90
2018-08-22T02:10:22.443Z,22.90
2018-08-22T02:12:51.065Z,22.80
2018-08-22T02:15:19.668Z,22.80
2018-08-22T02:17:48.279Z,22.70
2018-08-22T02:20:16.927Z,22.70
2018-08-22T02:22:45.568Z,22.70
2018-08-22T02:25:15.164Z,22.70
2018-08-22T02:27:43.657Z,22.70
2018-08-22T02:30:12.517Z,22.70
2018-08-22T02:32:41.436Z,22.70
2018-08-22T02:35:10.024Z,22.60
2018-08-22T02:37:38.612Z,22.60
2018-08-22T02:40:07.266Z,22.50
2018-08-22T02:42:35.858Z,22.50
2018-08-22T02:45:04.898Z,22.60
2018-08-22T02:47:33.686Z,22.60
2018-08-22T02:50:03.210Z,22.50
2018-08-22T02:52:31.860Z,22.50
2018-08-22T02:55:00.445Z,22.50
2018-08-22T02:57:29.116Z,22.50
2018-08-22T02:59:57.954Z,22.40
2018-08-22T03:02:26.724Z,22.40
2018-08-22T03:04:55.556Z,22.40
2018-08-22T03:07:25.331Z,22.40
2018-08-22T03:09:53.927Z,22.40
2018-08-22T03:12:22.581Z,22.40
2018-08-22T03:14:51.545Z,22.40
2018-08-22T03:17:20.620Z,22.30
2018-08-22T03:19:49.738Z,22.30
2018-08-22T03:22:18.834Z,22.30
2018-08-22T03:24:47.370Z,22.30
2018-08-22T03:27:15.936Z,22.20
2018-08-22T03:29:44.537Z,22.20
2018-08-22T03:32:14.193Z,22.20
2018-08-22T03:34:42.744Z,22.30
2018-08-22T03:37:11.994Z,22.30
2018-08-22T03:39:40.769Z,22.30
2018-08-22T03:42:09.723Z,22.30
2018-08-22T03:44:38.371Z,22.30
2018-08-22T03:47:07.044Z,22.20
2018-08-22T03:49:35.926Z,22.20
2018-08-22T03:52:04.485Z,22.10
2018-08-22T03:54:33.130Z,22.10
2018-08-22T03:57:01.639Z,22.00
2018-08-22T03:59:30.541Z,22.10
2018-08-22T04:01:59.451Z,22.00
2018-08-22T04:04:28.602Z,22.00
2018-08-22T04:06:57.291Z,22.00
2018-08-22T04:09:26.340Z,22.00
2018-08-22T04:11:55.081Z,22.00
2018-08-22T04:14:23.603Z,21.90
2018-08-22T04:16:52.397Z,21.90
2018-08-22T04:19:20.982Z,21.90
2018-08-22T04:21:49.626Z,21.80
2018-08-22T04:24:18.148Z,21.80
2018-08-22T04:26:46.713Z,21.80
2018-08-22T04:29:15.789Z,21.90
2018-08-22T04:31:44.439Z,22.00
2018-08-22T04:34:13.514Z,21.90
2018-08-22T04:36:42.856Z,21.90
2018-08-22T04:39:12.740Z,21.90
2018-08-22T04:41:41.321Z,21.90
2018-08-22T04:44:09.861Z,21.90
2018-08-22T04:46:38.472Z,21.90
2018-08-22T04:49:07.746Z,21.90
2018-08-22T04:51:36.247Z,21.80
2018-08-22T04:54:04.829Z,21.80
2018-08-22T04:56:33.454Z,21.70
2018-08-22T04:59:02.606Z,21.80
2018-08-22T05:01:31.634Z,21.80
2018-08-22T05:04:00.212Z,21.80
2018-08-22T05:06:28.784Z,21.80
2018-08-22T05:08:57.599Z,21.80
2018-08-22T05:11:26.336Z,21.80
2018-08-22T05:13:55.180Z,21.80
2018-08-22T05:16:23.912Z,21.80
2018-08-22T05:18:53.334Z,21.80
2018-08-22T05:21:21.933Z,21.80
2018-08-22T05:23:50.556Z,21.80
2018-08-22T05:26:19.184Z,21.80
2018-08-22T05:28:48.049Z,21.80
2018-08-22T05:31:17.724Z,21.90
2018-08-22T05:33:46.680Z,22.00
2018-08-22T05:36:15.563Z,22.00
2018-08-22T05:38:44.257Z,22.10
2018-08-22T05:41:12.923Z,22.10
2018-08-22T05:43:42.539Z,22.10
2018-08-22T05:46:11.588Z,22.30
2018-08-22T05:48:40.411Z,22.30
2018-08-22T05:51:09.426Z,22.30
2018-08-22T05:53:38.104Z,22.30
2018-08-22T05:56:06.761Z,22.40
2018-08-22T05:58:36.046Z,22.40
2018-08-22T06:01:04.734Z,22.40
2018-08-22T06:03:33.873Z,22.40
2018-08-22T06:06:02.599Z,22.50
2018-08-22T06:08:31.411Z,22.50
2018-08-22T06:11:00.807Z,22.60
2018-08-22T06:13:29.780Z,22.60
2018-08-22T06:15:58.632Z,22.70
2018-08-22T06:18:27.278Z,22.80
2018-08-22T06:20:56.212Z,22.90
2018-08-22T06:23:24.865Z,23.00
2018-08-22T06:26:08.544Z,23.00
2018-08-22T06:28:37.566Z,23.10
2018-08-22T06:31:06.732Z,23.10
2018-08-22T06:33:35.878Z,23.20
2018-08-22T06:36:04.726Z,23.20
2018-08-22T06:38:33.826Z,23.40
2018-08-22T06:41:02.980Z,23.40
2018-08-22T06:43:31.863Z,23.50
2018-08-22T06:46:01.060Z,23.50
2018-08-22T06:48:30.282Z,23.60
2018-08-22T06:51:00.386Z,23.70
2018-08-22T06:53:29.064Z,23.70
2018-08-22T06:55:57.863Z,23.90
2018-08-22T06:58:26.648Z,24.00
2018-08-22T07:00:56.061Z,24.00
2018-08-22T07:03:24.845Z,24.10
2018-08-22T07:05:53.752Z,24.20
2018-08-22T07:08:22.564Z,24.20
2018-08-22T07:10:51.286Z,24.30
2018-08-22T07:13:20.138Z,24.40
2018-08-22T07:15:48.833Z,24.50
2018-08-22T07:18:17.999Z,24.70
2018-08-22T07:20:47.436Z,24.90
2018-08-22T07:23:16.251Z,25.10
2018-08-22T07:25:44.945Z,25.20
2018-08-22T07:28:13.660Z,25.40
2018-08-22T07:30:42.600Z,25.60
2018-08-22T07:33:11.250Z,25.80
2018-08-22T07:35:40.198Z,25.90
2018-08-22T07:38:08.851Z,26.10
2018-08-22T07:40:42.763Z,26.20
2018-08-22T07:43:11.578Z,26.30
2018-08-22T07:45:40.243Z,26.40
2018-08-22T07:48:08.935Z,26.60
2018-08-22T07:50:37.539Z,26.70
2018-08-22T07:53:06.372Z,26.80
2018-08-22T07:55:37.136Z,26.90
2018-08-22T07:58:05.892Z,27.00
2018-08-22T08:00:35.030Z,27.00
2018-08-22T08:03:03.984Z,27.10
2018-08-22T08:05:32.731Z,27.20
2018-08-22T08:08:01.375Z,27.30
2018-08-22T08:10:33.163Z,27.40
2018-08-22T08:13:02.504Z,27.40
2018-08-22T08:15:31.403Z,27.50
2018-08-22T08:17:59.979Z,27.50
2018-08-22T08:20:28.894Z,27.60
2018-08-22T08:22:58.016Z,27.60
2018-08-22T08:25:26.951Z,27.70
2018-08-22T08:27:55.514Z,27.70
2018-08-22T08:30:24.427Z,27.70
2018-08-22T08:32:53.071Z,27.80
2018-08-22T08:35:21.908Z,27.80
2018-08-22T08:37:50.809Z,27.80
2018-08-22T08:40:19.533Z,27.90
2018-08-22T08:42:48.205Z,27.90
2018-08-22T08:45:16.960Z,27.90
2018-08-22T08:47:46.635Z,27.90
2018-08-22T08:50:15.759Z,28.00
2018-08-22T08:52:44.789Z,27.90
2018-08-22T08:55:13.890Z,28.00
2018-08-22T08:57:42.563Z,28.00
2018-08-22T09:00:11.361Z,28.00
2018-08-22T09:02:40.011Z,28.00
2018-08-22T09:05:08.765Z,28.00
2018-08-22T09:07:38.193Z,28.00
2018-08-22T09:10:06.968Z,28.00
2018-08-22T09:12:37.253Z,28.10
2018-08-22T09:15:06.607Z,28.00
2018-08-22T09:17:35.372Z,28.00
2018-08-22T09:20:04.682Z,28.00
2018-08-22T09:22:33.537Z,28.00
2018-08-22T09:25:02.275Z,28.00
2018-08-22T09:27:30.912Z,28.00
2018-08-22T09:29:59.647Z,28.00
2018-08-22T09:32:30.897Z,28.00
2018-08-22T09:34:59.687Z,28.00
2018-08-22T09:37:28.450Z,28.00
2018-08-22T09:39:57.180Z,28.00
2018-08-22T09:42:26.119Z,28.00
2018-08-22T09:44:54.686Z,28.10
2018-08-22T09:47:23.292Z,28.00
2018-08-22T09:49:51.922Z,28.10
2018-08-22T09:52:20.865Z,28.10
2018-08-22T09:54:58.597Z,28.00
2018-08-22T09:57:28.118Z,28.00
2018-08-22T09:59:56.783Z,28.10
2018-08-22T10:02:25.394Z,28.00
2018-08-22T10:04:54.293Z,28.00
2018-08-22T10:07:23.155Z,28.00
2018-08-22T10:09:51.965Z,28.10
2018-08-22T10:12:20.640Z,28.10
2018-08-22T10:14:49.577Z,28.10
2018-08-22T10:17:18.220Z,28.10
2018-08-22T10:19:47.040Z,28.00
2018-08-22T10:22:15.718Z,28.00
2018-08-22T10:24:44.486Z,28.00
2018-08-22T10:27:13.186Z,27.90
2018-08-22T10:29:41.953Z,28.00
2018-08-22T10:32:11.012Z,28.00
2018-08-22T10:34:39.618Z,28.00
2018-08-22T10:37:08.333Z,28.00
2018-08-22T10:39:51.748Z,28.10
2018-08-22T10:42:20.609Z,28.20
2018-08-22T10:44:49.439Z,28.20
2018-08-22T10:47:18.451Z,28.30
2018-08-22T10:49:47.237Z,28.30
2018-08-22T10:52:16.882Z,28.30
2018-08-22T10:54:46.855Z,28.30
2018-08-22T10:57:15.719Z,28.30
2018-08-22T10:59:44.672Z,28.20
2018-08-22T11:02:13.898Z,28.30
2018-08-22T11:04:42.885Z,28.30
2018-08-22T11:07:11.571Z,28.30
2018-08-22T11:09:40.335Z,28.20
2018-08-22T11:12:14.289Z,28.20
2018-08-22T11:14:43.097Z,28.30
2018-08-22T11:17:11.796Z,28.30
2018-08-22T11:19:40.590Z,28.20
2018-08-22T11:22:20.455Z,28.30
2018-08-22T11:25:00.236Z,28.30
2018-08-22T11:27:40.083Z,28.40
2018-08-22T11:30:20.075Z,28.70
2018-08-22T11:33:00.436Z,28.70
2018-08-22T11:35:28.160Z,28.70
2018-08-22T11:37:57.600Z,28.80
2018-08-22T11:40:26.759Z,28.80
2018-08-22T11:42:56.174Z,28.80
2018-08-22T11:45:25.824Z,28.90
2018-08-22T11:47:55.955Z,29.00
2018-08-22T11:50:24.514Z,29.20
2018-08-22T11:52:54.399Z,29.30
2018-08-22T11:55:23.134Z,29.30
2018-08-22T11:57:52.008Z,29.30
2018-08-22T12:00:21.939Z,29.30
2018-08-22T12:02:51.036Z,29.40
2018-08-22T12:05:19.810Z,29.50
2018-08-22T12:07:48.486Z,29.50
2018-08-22T12:10:17.304Z,29.60
2018-08-22T12:12:45.991Z,29.60
2018-08-22T12:15:14.777Z,29.50
2018-08-22T12:17:43.560Z,29.50
2018-08-22T12:20:12.874Z,29.50
2018-08-22T12:22:43.556Z,29.50
2018-08-22T12:25:18.351Z,29.40
2018-08-22T12:27:47.224Z,29.40
2018-08-22T12:30:16.236Z,29.50
2018-08-22T12:32:45.582Z,29.70
2018-08-22T12:35:14.308Z,29.80
2018-08-22T12:37:43.820Z,29.70
2018-08-22T12:40:12.456Z,29.70
2018-08-22T12:42:41.389Z,29.70
2018-08-22T12:45:11.600Z,29.60
2018-08-22T12:47:40.838Z,29.50
2018-08-22T12:50:10.391Z,29.50
2018-08-22T12:52:40.315Z,29.50
2018-08-22T12:55:09.328Z,29.50
2018-08-22T12:57:38.168Z,29.50
2018-08-22T13:00:07.455Z,29.50
2018-08-22T13:02:36.353Z,29.50
2018-08-22T13:05:05.092Z,29.40
2018-08-22T13:07:34.250Z,29.40
2018-08-22T13:10:05.458Z,29.40
2018-08-22T13:12:34.272Z,29.40
2018-08-22T13:15:03.111Z,29.30
2018-08-22T13:17:32.551Z,29.30
2018-08-22T13:20:01.572Z,29.40
2018-08-22T13:22:30.536Z,29.50
2018-08-22T13:24:59.411Z,29.50
2018-08-22T13:27:28.283Z,29.50
2018-08-22T13:29:57.471Z,29.50
2018-08-22T13:32:26.329Z,29.60
2018-08-22T13:34:54.958Z,29.70
2018-08-22T13:37:23.713Z,29.60
2018-08-22T13:39:52.487Z,29.60
2018-08-22T13:42:21.187Z,29.50
2018-08-22T13:44:49.732Z,29.60
2018-08-22T13:47:18.359Z,29.50
2018-08-22T13:49:47.098Z,29.50
2018-08-22T13:52:17.192Z,29.50
2018-08-22T13:54:46.214Z,29.50
2018-08-22T13:57:14.721Z,29.50
2018-08-22T13:59:43.537Z,29.50
2018-08-22T14:02:12.169Z,29.50
2018-08-22T14:04:41.302Z,29.50
2018-08-22T14:07:10.089Z,29.40
2018-08-22T14:09:38.798Z,29.40
2018-08-22T14:12:07.415Z,29.40
2018-08-22T14:14:36.260Z,29.40
2018-08-22T14:17:05.515Z,29.40
2018-08-22T14:19:34.321Z,29.40
2018-08-22T14:22:03.358Z,29.40
2018-08-22T14:24:31.940Z,29.40
2018-08-22T14:27:00.600Z,29.40
2018-08-22T14:29:29.304Z,29.40
2018-08-22T14:31:57.975Z,29.40
2018-08-22T14:34:26.996Z,29.50
2018-08-22T14:36:55.852Z,29.40
2018-08-22T14:39:24.622Z,29.50
2018-08-22T14:41:53.975Z,29.50
2018-08-22T14:44:23.220Z,29.50
2018-08-22T14:46:53.116Z,29.50
2018-08-22T14:49:22.546Z,29.50
2018-08-22T14:51:51.353Z,29.50
2018-08-22T14:54:21.337Z,29.50
2018-08-22T14:56:54.202Z,29.40
2018-08-22T14:59:22.959Z,29.40
2018-08-22T15:01:51.996Z,29.40
2018-08-22T15:04:20.683Z,29.40
2018-08-22T15:06:49.429Z,29.30
2018-08-22T15:09:20.141Z,29.30
2018-08-22T15:11:49.164Z,29.30
2018-08-22T15:14:17.984Z,29.30
2018-08-22T15:16:46.524Z,29.30
2018-08-22T15:19:15.247Z,29.20
2018-08-22T15:21:43.992Z,29.20
2018-08-22T15:24:12.736Z,29.20
2018-08-22T15:26:41.480Z,29.20
2018-08-22T15:29:10.097Z,29.20
2018-08-22T15:31:38.808Z,29.20
2018-08-22T15:34:07.844Z,29.10
2018-08-22T15:36:37.335Z,29.10
2018-08-22T15:39:08.899Z,29.00
2018-08-22T15:41:37.494Z,29.10
2018-08-22T15:44:06.379Z,29.20
2018-08-22T15:46:34.982Z,29.30
2018-08-22T15:49:03.787Z,29.50
2018-08-22T15:51:32.298Z,29.70
2018-08-22T15:54:10.070Z,29.80
2018-08-22T15:56:40.262Z,29.90
2018-08-22T15:59:10.168Z,29.80
2018-08-22T16:01:39.117Z,29.70
2018-08-22T16:04:08.352Z,29.70
2018-08-22T16:06:36.991Z,29.70
2018-08-22T16:09:15.611Z,29.90
2018-08-22T16:11:44.821Z,29.90
2018-08-22T16:14:13.732Z,29.80
2018-08-22T16:16:42.551Z,29.80
2018-08-22T16:19:11.196Z,29.80
2018-08-22T16:21:39.825Z,29.70
2018-08-22T16:24:08.756Z,29.60
2018-08-22T16:26:37.319Z,29.40
2018-08-22T16:29:06.058Z,29.20
2018-08-22T16:31:39.932Z,29.10
2018-08-22T16:34:10.712Z,29.00
2018-08-22T16:36:40.090Z,28.90
2018-08-22T16:39:09.422Z,28.80
2018-08-22T16:41:38.379Z,28.80
2018-08-22T16:44:07.063Z,28.80
2018-08-22T16:46:35.676Z,29.10
2018-08-22T16:49:04.333Z,29.20
2018-08-22T16:51:32.926Z,29.40
2018-08-22T16:54:07.017Z,29.50
2018-08-22T16:56:35.923Z,29.50
2018-08-22T16:59:12.355Z,29.40
2018-08-22T17:01:47.783Z,29.30
2018-08-22T17:04:17.194Z,29.20
2018-08-22T17:06:46.063Z,29.20
2018-08-22T17:09:14.665Z,29.10
2018-08-22T17:11:43.299Z,29.10
2018-08-22T17:14:12.245Z,29.00
2018-08-22T17:16:40.776Z,29.00
2018-08-22T17:19:09.377Z,29.00
2018-08-22T17:21:37.951Z,28.90
2018-08-22T17:24:06.731Z,28.80
2018-08-22T17:26:35.268Z,28.80
2018-08-22T17:29:04.032Z,28.60
2018-08-22T17:31:32.641Z,27.40
2018-08-22T17:34:02.694Z,28.50
2018-08-22T17:36:31.280Z,28.40
2018-08-22T17:39:00.912Z,28.40
2018-08-22T17:41:30.720Z,28.30
2018-08-22T17:44:09.537Z,28.30
2018-08-22T17:46:41.260Z,28.30
2018-08-22T17:49:10.151Z,28.20
2018-08-22T17:51:59.304Z,28.20
2018-08-22T17:54:28.469Z,28.20
2018-08-22T17:57:10.400Z,28.10
2018-08-22T17:59:39.586Z,28.10
2018-08-22T18:02:08.214Z,28.00
2018-08-22T18:04:48.390Z,28.00
2018-08-22T18:07:17.734Z,28.00
2018-08-22T18:09:47.560Z,28.00
2018-08-22T18:12:16.818Z,28.00
2018-08-22T18:14:45.754Z,28.10
2018-08-22T18:17:14.676Z,28.10
2018-08-22T18:19:43.278Z,28.10
2018-08-22T18:22:11.859Z,28.00
2018-08-22T18:24:47.507Z,28.00
2018-08-22T18:27:16.702Z,28.00
2018-08-22T18:29:46.434Z,28.00
2018-08-22T18:32:15.674Z,28.00
2018-08-22T18:34:57.726Z,27.90
2018-08-22T18:37:27.879Z,27.90
2018-08-22T18:40:11.706Z,27.90
2018-08-22T18:42:40.324Z,27.90
2018-08-22T18:45:09.120Z,27.90
2018-08-22T18:47:37.806Z,27.90
2018-08-22T18:50:06.495Z,27.90
2018-08-22T18:52:35.038Z,27.80
2018-08-22T18:55:03.914Z,27.80
2018-08-22T18:57:32.530Z,27.80
2018-08-22T19:00:03.485Z,27.80
2018-08-22T19:02:32.309Z,27.80
2018-08-22T19:05:29.904Z,27.70
2018-08-22T19:08:04.779Z,27.70
2018-08-22T19:10:34.910Z,27.60
2018-08-22T19:13:08.856Z,27.60
2018-08-22T19:15:38.111Z,27.60
2018-08-22T19:18:08.269Z,27.60
2018-08-22T19:20:37.434Z,27.60
2018-08-22T19:23:06.012Z,27.60
2018-08-22T19:25:34.801Z,27.50
2018-08-22T19:28:03.800Z,27.50
2018-08-22T19:30:35.348Z,27.50
2018-08-22T19:33:04.064Z,27.50
2018-08-22T19:35:33.037Z,27.50
2018-08-22T19:38:04.414Z,27.40
2018-08-22T19:40:33.066Z,27.40
2018-08-22T19:43:02.003Z,27.40
2018-08-22T19:45:30.897Z,27.40
2018-08-22T19:47:59.518Z,27.40
2018-08-22T19:50:29.460Z,27.30
2018-08-22T19:52:58.096Z,27.30
2018-08-22T19:55:26.764Z,27.30
2018-08-22T19:57:55.348Z,27.30
2018-08-22T20:00:24.250Z,27.30
2018-08-22T20:02:52.848Z,27.30
2018-08-22T20:05:21.498Z,27.20
2018-08-22T20:07:50.279Z,27.20
2018-08-22T20:10:23.858Z,27.20
2018-08-22T20:12:55.605Z,27.20
2018-08-22T20:15:24.343Z,27.10
2018-08-22T20:17:54.155Z,27.10
2018-08-22T20:20:22.950Z,27.10
2018-08-22T20:22:53.411Z,27.00
2018-08-22T20:25:22.533Z,27.00
2018-08-22T20:27:51.255Z,27.00
2018-08-22T20:30:20.820Z,27.00
2018-08-22T20:32:56.674Z,27.00
2018-08-22T20:35:31.184Z,27.00
2018-08-22T20:38:01.017Z,27.00
2018-08-22T20:40:29.863Z,26.90
2018-08-22T20:42:58.867Z,26.90
2018-08-22T20:45:32.724Z,26.90
2018-08-22T20:48:06.611Z,26.90
2018-08-22T20:50:35.976Z,26.80
2018-08-22T20:53:05.895Z,26.80
2018-08-22T20:55:34.571Z,26.80
2018-08-22T20:58:03.871Z,26.80
2018-08-22T21:00:34.663Z,26.80
2018-08-22T21:03:03.477Z,26.70
2018-08-22T21:05:32.436Z,26.70
2018-08-22T21:08:01.026Z,26.70
2018-08-22T21:10:29.896Z,26.70
2018-08-22T21:12:58.503Z,26.70
2018-08-22T21:15:27.090Z,26.70
2018-08-22T21:17:55.656Z,26.70
2018-08-22T21:20:26.150Z,26.60
2018-08-22T21:22:56.654Z,26.40
2018-08-22T21:25:25.620Z,26.30
2018-08-22T21:27:55.055Z,26.30
2018-08-22T21:30:24.028Z,26.20
2018-08-22T21:32:52.738Z,26.10
2018-08-22T21:35:26.079Z,26.10
2018-08-22T21:37:59.011Z,26.00
2018-08-22T21:40:27.564Z,25.90
2018-08-22T21:42:56.133Z,25.90
2018-08-22T21:45:25.076Z,25.90
2018-08-22T21:48:09.272Z,25.90
2018-08-22T21:50:37.940Z,25.90
2018-08-22T21:53:06.577Z,25.80
2018-08-22T21:55:37.861Z,25.80
2018-08-22T21:58:08.580Z,25.80
2018-08-22T22:00:37.485Z,25.70
2018-08-22T22:03:06.626Z,25.70
2018-08-22T22:05:42.466Z,25.60
2018-08-22T22:08:11.100Z,25.60
2018-08-22T22:10:40.078Z,25.60
2018-08-22T22:13:09.383Z,25.50
2018-08-22T22:15:46.018Z,25.50
2018-08-22T22:18:14.661Z,25.50
2018-08-22T22:20:47.818Z,25.50
2018-08-22T22:23:16.560Z,25.50
2018-08-22T22:25:50.356Z,25.40
2018-08-22T22:28:19.437Z,25.40
2018-08-22T22:30:48.125Z,25.40
2018-08-22T22:33:16.761Z,25.40
2018-08-22T22:35:45.703Z,25.50
2018-08-22T22:38:14.391Z,25.60
2018-08-22T22:40:42.989Z,25.70
2018-08-22T22:43:12.999Z,25.70
2018-08-22T22:45:41.884Z,25.70
2018-08-22T22:48:10.536Z,25.70
2018-08-22T22:50:39.180Z,25.60
2018-08-22T22:53:08.087Z,25.50
2018-08-22T22:55:37.030Z,25.50
2018-08-22T22:58:05.693Z,25.40
2018-08-22T23:00:34.225Z,25.40
2018-08-22T23:03:07.224Z,25.40
2018-08-22T23:05:35.919Z,25.50
2018-08-22T23:08:04.505Z,25.40
2018-08-22T23:10:33.071Z,25.30
2018-08-22T23:13:01.618Z,25.30
2018-08-22T23:15:31.209Z,25.30
2018-08-22T23:18:01.145Z,25.20
2018-08-22T23:20:34.163Z,25.20
2018-08-22T23:23:03.120Z,25.20
2018-08-22T23:25:31.909Z,25.10
2018-08-22T23:28:00.538Z,25.10
2018-08-22T23:30:36.492Z,25.30
2018-08-22T23:33:05.691Z,25.40
2018-08-22T23:35:35.508Z,25.40
2018-08-22T23:38:05.419Z,25.40
2018-08-22T23:40:35.061Z,25.40
2018-08-22T23:43:03.695Z,25.50
2018-08-22T23:45:36.136Z,25.50
2018-08-22T23:48:05.690Z,25.50
2018-08-22T23:50:55.918Z,25.60
2018-08-22T23:53:27.644Z,25.60
2018-08-22T23:56:10.074Z,25.50
2018-08-22T23:58:39.553Z,25.40
